createdAt,value
2017-08-29T00:01:09.447Z,90.90
2017-08-29T00:03:37.522Z,90.50
2017-08-29T00:06:05.620Z,90.20
2017-08-29T00:08:33.736Z,90.50
2017-08-29T00:11:02.727Z,90.30
2017-08-29T00:13:30.828Z,90.60
2017-08-29T00:15:58.912Z,90.40
2017-08-29T00:18:27.008Z,90.70
2017-08-29T00:20:55.117Z,90.40
2017-08-29T00:23:23.211Z,90.30
2017-08-29T00:25:51.316Z,90.50
2017-08-29T00:28:19.419Z,90.30
2017-08-29T00:30:47.528Z,90.50
2017-08-29T00:33:15.621Z,90.50
2017-08-29T00:35:43.707Z,90.40
2017-08-29T00:38:11.807Z,90.40
2017-08-29T00:40:39.902Z,90.20
2017-08-29T00:43:08.914Z,90.40
2017-08-29T00:45:37.263Z,90.10
2017-08-29T00:48:05.367Z,90.60
2017-08-29T00:50:33.457Z,90.10
2017-08-29T00:53:01.571Z,90.40
2017-08-29T00:55:29.659Z,90.20
2017-08-29T00:57:57.759Z,90.20
2017-08-29T01:00:25.887Z,90.50
2017-08-29T01:02:53.991Z,90.50
2017-08-29T01:05:22.108Z,90.70
2017-08-29T01:07:50.199Z,90.50
2017-08-29T01:10:18.294Z,90.40
2017-08-29T01:12:46.406Z,90.50
2017-08-29T01:15:14.490Z,90.50
2017-08-29T01:17:42.594Z,90.40
2017-08-29T01:20:10.679Z,90.80
2017-08-29T01:22:38.806Z,90.80
2017-08-29T01:25:06.918Z,90.30
2017-08-29T01:27:35.013Z,90.30
2017-08-29T01:30:04.015Z,90.30
2017-08-29T01:32:32.101Z,90.70
2017-08-29T01:35:00.219Z,91.20
2017-08-29T01:37:28.311Z,91.10
2017-08-29T01:39:58.303Z,90.80
2017-08-29T01:42:26.402Z,90.70
2017-08-29T01:44:54.555Z,90.70
2017-08-29T01:47:22.695Z,90.70
2017-08-29T01:49:50.796Z,90.60
2017-08-29T01:52:18.902Z,90.90
2017-08-29T01:54:46.978Z,90.60
2017-08-29T01:57:15.075Z,90.80
2017-08-29T01:59:43.168Z,90.60
2017-08-29T02:02:11.302Z,90.90
2017-08-29T02:04:39.420Z,90.70
2017-08-29T02:07:07.500Z,90.90
2017-08-29T02:09:35.604Z,90.70
2017-08-29T02:12:03.691Z,90.90
2017-08-29T02:14:31.817Z,90.60
2017-08-29T02:16:59.895Z,90.40
2017-08-29T02:19:28.000Z,90.40
2017-08-29T02:21:56.117Z,90.50
2017-08-29T02:24:24.197Z,90.70
2017-08-29T02:26:52.303Z,90.90
2017-08-29T02:29:20.382Z,90.60
2017-08-29T02:31:48.494Z,90.60
2017-08-29T02:34:16.583Z,90.50
2017-08-29T02:36:44.675Z,90.60
2017-08-29T02:39:13.688Z,90.30
2017-08-29T02:41:41.767Z,90.60
2017-08-29T02:44:13.323Z,90.60
2017-08-29T02:46:41.428Z,90.70
2017-08-29T02:49:11.414Z,90.50
2017-08-29T02:51:39.526Z,91.20
2017-08-29T02:54:08.059Z,90.90
2017-08-29T02:56:36.175Z,90.80
2017-08-29T02:59:04.251Z,90.60
2017-08-29T03:01:32.339Z,91.00
2017-08-29T03:04:01.342Z,90.70
2017-08-29T03:06:29.434Z,90.90
2017-08-29T03:08:57.543Z,90.90
2017-08-29T03:11:25.635Z,91.20
2017-08-29T03:13:53.733Z,91.10
2017-08-29T03:16:21.852Z,91.30
2017-08-29T03:18:49.947Z,90.80
2017-08-29T03:21:18.064Z,90.90
2017-08-29T03:23:46.146Z,91.00
2017-08-29T03:26:14.244Z,90.80
2017-08-29T03:28:42.337Z,90.90
2017-08-29T03:31:10.438Z,90.70
2017-08-29T03:33:38.551Z,90.80
2017-08-29T03:36:06.667Z,91.00
2017-08-29T03:38:34.741Z,90.80
2017-08-29T03:41:02.833Z,91.10
2017-08-29T03:43:30.932Z,91.10
2017-08-29T03:45:59.920Z,91.10
2017-08-29T03:48:28.024Z,91.10
2017-08-29T03:50:56.116Z,91.10
2017-08-29T03:53:25.133Z,91.00
2017-08-29T03:55:53.212Z,90.80
2017-08-29T03:58:21.294Z,90.70
2017-08-29T04:00:49.406Z,90.70
2017-08-29T04:03:17.492Z,91.00
2017-08-29T04:05:46.515Z,90.90
2017-08-29T04:08:14.601Z,90.70
2017-08-29T04:10:42.712Z,90.60
2017-08-29T04:13:10.805Z,90.90
2017-08-29T04:15:38.887Z,90.80
2017-08-29T04:18:07.020Z,90.90
2017-08-29T04:20:36.055Z,90.70
2017-08-29T04:23:04.151Z,90.70
2017-08-29T04:25:32.243Z,90.90
2017-08-29T04:28:00.351Z,90.80
2017-08-29T04:30:28.454Z,90.80
2017-08-29T04:32:56.575Z,91.20
2017-08-29T04:35:24.679Z,90.80
2017-08-29T04:37:52.781Z,91.10
2017-08-29T04:40:20.858Z,91.30
2017-08-29T04:42:48.972Z,91.30
2017-08-29T04:45:17.086Z,90.90
2017-08-29T04:47:45.195Z,91.10
2017-08-29T04:50:13.279Z,91.00
2017-08-29T04:52:41.387Z,90.90
2017-08-29T04:55:09.480Z,91.20
2017-08-29T04:57:38.519Z,90.90
2017-08-29T05:00:06.622Z,91.20
2017-08-29T05:02:34.760Z,91.60
2017-08-29T05:05:02.857Z,91.40
2017-08-29T05:07:30.940Z,90.90
2017-08-29T05:09:59.050Z,91.00
2017-08-29T05:12:27.146Z,90.80
2017-08-29T05:14:55.258Z,91.30
2017-08-29T05:17:23.344Z,91.60
2017-08-29T05:19:51.482Z,91.50
2017-08-29T05:22:19.589Z,91.60
2017-08-29T05:24:47.715Z,91.60
2017-08-29T05:27:15.810Z,91.70
2017-08-29T05:29:44.822Z,91.50
2017-08-29T05:32:12.912Z,91.50
2017-08-29T05:34:41.048Z,91.30
2017-08-29T05:37:09.135Z,91.30
2017-08-29T05:39:37.235Z,91.30
2017-08-29T05:42:05.327Z,91.20
2017-08-29T05:44:33.468Z,91.10
2017-08-29T05:47:01.547Z,91.50
2017-08-29T05:49:29.661Z,91.50
2017-08-29T05:51:57.740Z,91.80
2017-08-29T05:54:25.839Z,91.90
2017-08-29T05:56:53.938Z,91.60
2017-08-29T05:59:22.032Z,91.80
2017-08-29T06:01:50.159Z,91.70
2017-08-29T06:04:18.235Z,91.40
2017-08-29T06:06:46.312Z,91.40
2017-08-29T06:09:14.447Z,91.40
2017-08-29T06:11:42.597Z,91.40
2017-08-29T06:14:10.680Z,90.80
2017-08-29T06:16:38.794Z,91.30
2017-08-29T06:19:06.916Z,91.10
2017-08-29T06:21:35.019Z,91.20
2017-08-29T06:24:03.134Z,91.00
2017-08-29T06:26:31.225Z,91.00
2017-08-29T06:28:59.338Z,91.00
2017-08-29T06:31:29.339Z,90.80
2017-08-29T06:33:57.437Z,90.60
2017-08-29T06:36:25.556Z,90.60
2017-08-29T06:38:53.652Z,90.60
2017-08-29T06:41:21.747Z,90.40
2017-08-29T06:43:49.847Z,90.20
2017-08-29T06:46:17.948Z,90.20
2017-08-29T06:48:46.129Z,90.10
2017-08-29T06:51:14.207Z,89.60
2017-08-29T06:53:42.303Z,90.00
2017-08-29T06:56:10.404Z,90.10
2017-08-29T06:58:38.534Z,90.00
2017-08-29T07:01:06.623Z,90.00
2017-08-29T07:03:34.699Z,90.10
2017-08-29T07:06:02.797Z,90.00
2017-08-29T07:08:30.896Z,89.20
2017-08-29T07:10:58.983Z,88.90
2017-08-29T07:13:28.001Z,89.10
2017-08-29T07:15:57.008Z,89.30
2017-08-29T07:18:26.033Z,89.70
2017-08-29T07:20:55.050Z,89.50
2017-08-29T07:23:23.142Z,89.80
2017-08-29T07:25:51.288Z,89.50
2017-08-29T07:28:19.394Z,90.00
2017-08-29T07:30:47.476Z,89.30
2017-08-29T07:33:15.602Z,89.50
2017-08-29T07:35:43.722Z,89.00
2017-08-29T07:38:11.809Z,88.50
2017-08-29T07:40:39.921Z,88.90
2017-08-29T07:43:08.034Z,88.90
2017-08-29T07:45:36.124Z,89.20
2017-08-29T07:48:04.221Z,89.40
2017-08-29T07:50:32.352Z,89.20
2017-08-29T07:53:00.448Z,89.30
2017-08-29T07:55:28.581Z,89.30
2017-08-29T07:57:56.677Z,88.50
2017-08-29T08:00:24.784Z,88.30
2017-08-29T08:02:53.788Z,89.40
2017-08-29T08:05:23.816Z,89.00
2017-08-29T08:07:51.934Z,88.90
2017-08-29T08:10:20.054Z,88.80
2017-08-29T08:12:48.147Z,88.80
2017-08-29T08:15:16.258Z,89.30
2017-08-29T08:17:44.368Z,88.50
2017-08-29T08:20:12.466Z,88.90
2017-08-29T08:22:40.590Z,89.00
2017-08-29T08:25:08.716Z,89.10
2017-08-29T08:27:36.825Z,88.90
2017-08-29T08:30:04.960Z,89.40
2017-08-29T08:32:33.063Z,89.40
2017-08-29T08:35:01.163Z,89.90
2017-08-29T08:37:29.250Z,89.50
2017-08-29T08:39:57.368Z,88.80
2017-08-29T08:42:25.450Z,88.60
2017-08-29T08:44:53.542Z,87.70
2017-08-29T08:47:23.559Z,88.10
2017-08-29T08:49:51.671Z,87.50
2017-08-29T08:52:19.824Z,88.60
2017-08-29T08:54:48.828Z,88.00
2017-08-29T08:57:16.931Z,88.20
2017-08-29T08:59:45.043Z,88.10
2017-08-29T09:02:13.149Z,87.70
2017-08-29T09:04:41.244Z,86.90
2017-08-29T09:07:09.357Z,87.60
2017-08-29T09:09:37.471Z,87.30
2017-08-29T09:12:05.575Z,87.00
2017-08-29T09:14:33.675Z,87.10
2017-08-29T09:17:01.903Z,87.10
2017-08-29T09:19:29.987Z,86.90
2017-08-29T09:21:58.156Z,85.80
2017-08-29T09:24:26.281Z,85.30
2017-08-29T09:26:55.282Z,85.80
2017-08-29T09:29:23.393Z,85.30
2017-08-29T09:31:51.528Z,84.30
2017-08-29T09:34:21.519Z,83.60
2017-08-29T09:36:49.624Z,83.50
2017-08-29T09:39:17.710Z,82.30
2017-08-29T09:41:45.844Z,83.50
2017-08-29T09:44:13.928Z,83.90
2017-08-29T09:46:42.020Z,83.20
2017-08-29T09:49:10.128Z,84.20
2017-08-29T09:51:38.255Z,83.30
2017-08-29T09:54:06.345Z,84.50
2017-08-29T09:56:34.454Z,83.40
2017-08-29T09:59:02.556Z,83.30
2017-08-29T10:01:30.675Z,82.80
2017-08-29T10:03:58.763Z,81.70
2017-08-29T10:06:26.867Z,82.70
2017-08-29T10:08:54.966Z,82.00
2017-08-29T10:11:23.064Z,82.40
2017-08-29T10:13:51.192Z,80.90
2017-08-29T10:16:19.286Z,81.30
2017-08-29T10:18:47.379Z,80.30
2017-08-29T10:21:15.500Z,81.50
2017-08-29T10:23:43.628Z,81.90
2017-08-29T10:26:11.773Z,82.40
2017-08-29T10:28:39.883Z,82.00
2017-08-29T10:31:07.976Z,82.20
2017-08-29T10:33:36.079Z,82.60
2017-08-29T10:36:04.193Z,82.40
2017-08-29T10:38:32.267Z,81.40
2017-08-29T10:41:00.346Z,80.90
2017-08-29T10:43:28.463Z,81.00
2017-08-29T10:45:56.561Z,81.00
2017-08-29T10:48:24.662Z,81.80
2017-08-29T10:50:52.787Z,81.50
2017-08-29T10:53:20.877Z,81.50
2017-08-29T10:55:48.973Z,80.90
2017-08-29T10:58:17.114Z,78.80
2017-08-29T11:00:45.226Z,78.50
2017-08-29T11:03:14.248Z,79.40
2017-08-29T11:05:44.259Z,78.50
2017-08-29T11:08:12.700Z,79.00
2017-08-29T11:10:40.795Z,79.00
2017-08-29T11:13:08.933Z,79.70
2017-08-29T11:15:37.114Z,78.20
2017-08-29T11:18:05.219Z,77.50
2017-08-29T11:20:33.306Z,77.80
2017-08-29T11:23:01.427Z,76.50
2017-08-29T11:25:29.541Z,75.80
2017-08-29T11:27:57.723Z,77.00
2017-08-29T11:30:25.823Z,76.60
2017-08-29T11:32:53.959Z,76.50
2017-08-29T11:35:22.064Z,73.90
2017-08-29T11:37:52.051Z,73.30
2017-08-29T11:40:20.165Z,74.70
2017-08-29T11:42:48.289Z,76.60
2017-08-29T11:45:16.416Z,74.90
2017-08-29T11:47:44.494Z,74.30
2017-08-29T11:50:12.961Z,73.70
2017-08-29T11:52:41.082Z,74.50
2017-08-29T11:55:09.200Z,73.10
2017-08-29T11:57:37.280Z,73.00
2017-08-29T12:00:05.401Z,71.80
2017-08-29T12:02:33.547Z,71.60
2017-08-29T12:05:01.685Z,72.40
2017-08-29T12:07:29.815Z,73.70
2017-08-29T12:09:57.940Z,70.40
2017-08-29T12:12:26.231Z,73.40
2017-08-29T12:14:55.507Z,72.80
2017-08-29T12:17:23.767Z,73.10
2017-08-29T12:19:51.881Z,68.40
2017-08-29T12:22:19.998Z,71.40
2017-08-29T12:24:48.306Z,70.30
2017-08-29T12:27:16.692Z,69.10
2017-08-29T12:29:44.928Z,69.10
2017-08-29T12:32:13.057Z,68.60
2017-08-29T12:34:42.087Z,68.40
2017-08-29T12:37:11.137Z,68.60
2017-08-29T12:39:40.099Z,65.20
2017-08-29T12:42:08.249Z,63.60
2017-08-29T12:44:36.778Z,64.60
2017-08-29T12:47:06.024Z,64.50
2017-08-29T12:49:34.130Z,66.60
2017-08-29T12:52:02.340Z,68.70
2017-08-29T12:54:30.804Z,65.80
2017-08-29T12:56:59.071Z,68.20
2017-08-29T12:59:27.173Z,69.30
2017-08-29T13:01:55.282Z,66.20
2017-08-29T13:04:24.142Z,65.60
2017-08-29T13:06:52.372Z,62.60
2017-08-29T13:09:20.513Z,65.40
2017-08-29T13:11:49.429Z,62.70
2017-08-29T13:14:17.749Z,66.20
2017-08-29T13:16:47.543Z,64.50
2017-08-29T13:19:16.468Z,66.20
2017-08-29T13:21:44.884Z,65.50
2017-08-29T13:24:13.040Z,63.50
2017-08-29T13:26:41.443Z,65.00
2017-08-29T13:29:09.651Z,65.80
2017-08-29T13:31:37.748Z,65.10
2017-08-29T13:34:06.272Z,64.40
2017-08-29T13:36:34.776Z,63.60
2017-08-29T13:39:03.091Z,64.20
2017-08-29T13:41:31.203Z,64.60
2017-08-29T13:43:59.345Z,63.40
2017-08-29T13:46:28.369Z,61.00
2017-08-29T13:48:56.794Z,60.30
2017-08-29T13:51:25.198Z,60.90
2017-08-29T13:53:54.247Z,61.60
2017-08-29T13:56:23.179Z,63.10
2017-08-29T13:58:52.238Z,63.80
2017-08-29T14:01:20.343Z,61.80
2017-08-29T14:03:48.639Z,60.90
2017-08-29T14:06:17.017Z,61.10
2017-08-29T14:08:45.344Z,61.70
2017-08-29T14:11:14.356Z,61.50
2017-08-29T14:13:42.631Z,63.00
2017-08-29T14:16:10.897Z,61.90
2017-08-29T14:18:39.015Z,60.30
2017-08-29T14:21:07.327Z,61.60
2017-08-29T14:23:36.490Z,63.00
2017-08-29T14:26:04.823Z,60.40
2017-08-29T14:28:32.975Z,59.70
2017-08-29T14:31:01.101Z,59.70
2017-08-29T14:33:31.198Z,57.90
2017-08-29T14:35:59.376Z,60.50
2017-08-29T14:38:27.618Z,63.10
2017-08-29T14:40:56.410Z,63.20
2017-08-29T14:43:24.527Z,61.70
2017-08-29T14:45:52.738Z,62.10
2017-08-29T14:48:38.736Z,64.20
2017-08-29T14:51:06.870Z,63.20
2017-08-29T14:53:34.969Z,64.00
2017-08-29T14:56:03.076Z,62.20
2017-08-29T14:58:31.422Z,59.00
2017-08-29T15:00:59.536Z,59.00
2017-08-29T15:03:27.936Z,60.60
2017-08-29T15:05:56.175Z,62.50
2017-08-29T15:08:24.287Z,63.30
2017-08-29T15:10:52.416Z,60.50
2017-08-29T15:13:20.488Z,62.20
2017-08-29T15:15:48.785Z,61.70
2017-08-29T15:18:16.875Z,63.90
2017-08-29T15:20:45.083Z,64.20
2017-08-29T15:23:13.197Z,64.40
2017-08-29T15:25:42.162Z,66.40
2017-08-29T15:28:10.472Z,64.20
2017-08-29T15:30:38.874Z,64.40
2017-08-29T15:33:07.137Z,66.00
2017-08-29T15:35:36.151Z,67.60
2017-08-29T15:38:04.363Z,66.40
2017-08-29T15:40:32.447Z,63.40
2017-08-29T15:43:00.551Z,66.30
2017-08-29T15:45:28.779Z,66.70
2017-08-29T15:47:56.916Z,65.90
2017-08-29T15:50:26.107Z,64.40
2017-08-29T15:52:54.212Z,62.90
2017-08-29T15:55:22.567Z,62.70
2017-08-29T15:57:50.676Z,63.50
2017-08-29T16:00:18.803Z,62.10
2017-08-29T16:02:47.092Z,65.40
2017-08-29T16:05:15.594Z,63.60
2017-08-29T16:07:44.544Z,64.20
2017-08-29T16:10:13.631Z,65.20
2017-08-29T16:12:42.000Z,64.10
2017-08-29T16:15:10.860Z,65.20
2017-08-29T16:17:38.967Z,65.30
2017-08-29T16:20:07.267Z,63.30
2017-08-29T16:22:35.535Z,64.00
2017-08-29T16:25:04.356Z,63.60
2017-08-29T16:27:32.902Z,66.10
2017-08-29T16:30:01.221Z,65.10
2017-08-29T16:32:30.628Z,64.30
2017-08-29T16:34:58.732Z,64.70
2017-08-29T16:37:26.904Z,63.30
2017-08-29T16:39:55.047Z,63.40
2017-08-29T16:42:23.500Z,63.00
2017-08-29T16:44:51.626Z,66.00
2017-08-29T16:47:19.774Z,66.60
2017-08-29T16:49:49.019Z,65.90
2017-08-29T16:52:17.425Z,63.30
2017-08-29T16:54:45.787Z,64.10
2017-08-29T16:57:14.124Z,64.00
2017-08-29T16:59:42.260Z,64.60
2017-08-29T17:02:10.345Z,64.50
2017-08-29T17:04:38.567Z,68.00
2017-08-29T17:07:06.785Z,67.90
2017-08-29T17:09:35.102Z,69.00
2017-08-29T17:12:03.241Z,69.10
2017-08-29T17:14:31.523Z,68.50
2017-08-29T17:16:59.690Z,67.20
2017-08-29T17:19:28.070Z,68.90
2017-08-29T17:21:56.308Z,70.70
2017-08-29T17:24:24.440Z,71.50
2017-08-29T17:26:52.731Z,71.30
2017-08-29T17:29:20.916Z,70.90
2017-08-29T17:31:49.931Z,70.50
2017-08-29T17:34:18.191Z,70.40
2017-08-29T17:36:46.573Z,70.30
2017-08-29T17:39:15.321Z,71.70
2017-08-29T17:41:43.639Z,71.50
2017-08-29T17:44:12.623Z,71.50
2017-08-29T17:46:40.836Z,72.70
2017-08-29T17:49:09.228Z,73.40
2017-08-29T17:51:37.834Z,73.00
2017-08-29T17:54:07.195Z,73.20
2017-08-29T17:56:36.019Z,73.60
2017-08-29T17:59:04.167Z,73.20
2017-08-29T18:01:33.887Z,73.00
2017-08-29T18:04:03.264Z,72.90
2017-08-29T18:06:31.656Z,74.40
2017-08-29T18:08:59.908Z,74.10
2017-08-29T18:11:28.274Z,75.20
2017-08-29T18:13:56.416Z,73.80
2017-08-29T18:16:25.437Z,74.60
2017-08-29T18:18:53.808Z,73.20
2017-08-29T18:21:22.105Z,74.70
2017-08-29T18:23:51.506Z,75.80
2017-08-29T18:26:19.871Z,75.30
2017-08-29T18:28:47.967Z,75.70
2017-08-29T18:31:16.290Z,76.60
2017-08-29T18:33:45.240Z,76.20
2017-08-29T18:36:14.215Z,76.10
2017-08-29T18:38:42.452Z,76.40
2017-08-29T18:41:10.693Z,76.40
2017-08-29T18:43:39.361Z,76.70
2017-08-29T18:46:07.640Z,77.90
2017-08-29T18:48:35.736Z,77.60
2017-08-29T18:51:04.053Z,77.40
2017-08-29T18:53:32.243Z,79.30
2017-08-29T18:56:00.646Z,78.30
2017-08-29T18:58:28.770Z,80.60
2017-08-29T19:00:57.825Z,81.20
2017-08-29T19:03:26.191Z,81.90
2017-08-29T19:05:54.491Z,84.80
2017-08-29T19:08:22.823Z,85.60
2017-08-29T19:10:50.994Z,86.90
2017-08-29T19:13:19.291Z,86.10
2017-08-29T19:15:48.061Z,87.50
2017-08-29T19:18:16.520Z,87.30
2017-08-29T19:20:44.816Z,87.60
2017-08-29T19:23:13.062Z,86.80
2017-08-29T19:25:43.952Z,88.60
2017-08-29T19:28:12.428Z,88.50
2017-08-29T19:30:40.567Z,87.60
2017-08-29T19:33:10.606Z,87.90
2017-08-29T19:35:40.269Z,87.70
2017-08-29T19:38:09.491Z,87.30
2017-08-29T19:40:37.841Z,87.20
2017-08-29T19:43:06.232Z,88.20
2017-08-29T19:45:34.364Z,86.80
2017-08-29T19:48:02.597Z,87.80
2017-08-29T19:50:31.400Z,87.00
2017-08-29T19:53:01.462Z,87.10
2017-08-29T19:55:30.713Z,87.40
2017-08-29T19:58:00.150Z,86.60
2017-08-29T20:00:28.295Z,87.50
2017-08-29T20:02:57.108Z,86.80
2017-08-29T20:05:25.370Z,86.60
2017-08-29T20:07:53.479Z,87.10
2017-08-29T20:10:21.831Z,86.60
2017-08-29T20:12:50.023Z,86.70
2017-08-29T20:15:18.947Z,86.00
2017-08-29T20:17:47.071Z,85.50
2017-08-29T20:20:16.167Z,85.50
2017-08-29T20:22:44.778Z,85.40
2017-08-29T20:25:13.873Z,84.50
2017-08-29T20:27:42.209Z,84.70
2017-08-29T20:30:10.340Z,85.30
2017-08-29T20:32:39.272Z,83.90
2017-08-29T20:35:08.248Z,82.50
2017-08-29T20:37:36.593Z,83.10
2017-08-29T20:40:05.596Z,81.70
2017-08-29T20:42:34.025Z,81.20
2017-08-29T20:45:02.148Z,81.90
2017-08-29T20:47:30.505Z,82.10
2017-08-29T20:49:59.880Z,80.90
2017-08-29T20:52:28.648Z,79.50
2017-08-29T20:54:56.928Z,80.10
2017-08-29T20:57:26.023Z,81.30
2017-08-29T20:59:54.385Z,80.90
2017-08-29T21:02:22.738Z,81.50
2017-08-29T21:04:50.999Z,80.40
2017-08-29T21:07:19.282Z,81.00
2017-08-29T21:09:47.396Z,81.70
2017-08-29T21:12:15.730Z,80.20
2017-08-29T21:14:43.845Z,81.30
2017-08-29T21:17:12.151Z,80.50
2017-08-29T21:19:41.734Z,81.10
2017-08-29T21:22:09.870Z,79.80
2017-08-29T21:24:38.856Z,80.00
2017-08-29T21:27:07.942Z,79.80
2017-08-29T21:29:36.147Z,81.20
2017-08-29T21:32:04.243Z,80.70
2017-08-29T21:34:32.368Z,80.50
2017-08-29T21:37:00.498Z,81.60
2017-08-29T21:39:28.581Z,80.40
2017-08-29T21:41:56.833Z,79.50
2017-08-29T21:44:26.338Z,79.80
2017-08-29T21:46:54.419Z,78.80
2017-08-29T21:49:22.635Z,79.50
2017-08-29T21:51:51.359Z,78.90
2017-08-29T21:54:19.510Z,79.20
2017-08-29T21:56:47.673Z,80.70
2017-08-29T21:59:16.026Z,78.30
2017-08-29T22:01:44.160Z,81.50
2017-08-29T22:04:12.523Z,81.30
2017-08-29T22:06:40.794Z,81.00
2017-08-29T22:09:09.039Z,80.20
2017-08-29T22:11:37.163Z,80.30
2017-08-29T22:14:05.282Z,81.20
2017-08-29T22:16:33.418Z,80.30
2017-08-29T22:19:01.546Z,81.10
2017-08-29T22:21:29.875Z,81.10
2017-08-29T22:23:57.954Z,80.20
2017-08-29T22:26:26.333Z,79.80
2017-08-29T22:28:54.426Z,80.80
2017-08-29T22:31:22.529Z,81.40
2017-08-29T22:33:50.892Z,81.10
2017-08-29T22:36:18.996Z,80.80
2017-08-29T22:38:47.105Z,79.40
2017-08-29T22:41:15.216Z,80.30
2017-08-29T22:43:43.569Z,79.10
2017-08-29T22:46:11.672Z,80.50
2017-08-29T22:48:39.871Z,80.80
2017-08-29T22:51:07.983Z,78.90
2017-08-29T22:53:36.302Z,78.90
2017-08-29T22:56:04.505Z,79.50
2017-08-29T22:58:33.278Z,80.50
2017-08-29T23:01:01.381Z,80.40
2017-08-29T23:03:29.775Z,80.50
2017-08-29T23:05:58.795Z,79.30
2017-08-29T23:08:26.939Z,80.00
2017-08-29T23:10:55.299Z,79.90
2017-08-29T23:13:23.616Z,79.30
2017-08-29T23:15:52.019Z,80.10
2017-08-29T23:18:20.539Z,80.20
2017-08-29T23:20:48.686Z,79.20
2017-08-29T23:23:16.903Z,80.90
2017-08-29T23:25:45.694Z,80.70
2017-08-29T23:28:14.756Z,80.80
2017-08-29T23:30:42.927Z,80.80
2017-08-29T23:33:11.264Z,80.50
2017-08-29T23:35:39.607Z,81.60
2017-08-29T23:38:07.864Z,81.90
2017-08-29T23:40:35.976Z,80.30
2017-08-29T23:43:04.062Z,82.10
2017-08-29T23:45:32.215Z,81.30
2017-08-29T23:48:00.369Z,81.00
2017-08-29T23:50:29.370Z,80.60
2017-08-29T23:52:57.538Z,80.70
2017-08-29T23:55:25.636Z,80.70
2017-08-29T23:57:53.815Z,80.20
